Terminal Aerodrome Forecast
Issued by NWS

Home | Current Version | Previous Version | Text Only | Print | Product List | Glossary Off
Versions: 1 2 3 4 5 6 7 8 9 10 11 12 13 14 15 16 17 18 19 20 21 22

000
FTUS44 KLZK 292338
TAFLIT
TAF
KLIT 292338Z 3000/3024 12008KT P6SM -TSRA BKN009CB OVC050
      TEMPO 3000/3004 2SM TSRA BR BKN005 OVC020CB
     FM300400 12008KT 5SM -TSRA BR BKN008 OVC025CB
     FM300700 12008KT 4SM -TSRA BR BKN006 OVC025CB
     FM300900 15005KT 2SM -TSRA BR BKN005 OVC020CB
     FM301500 19010KT 6SM -RA BR BKN008 OVC015=

USA.gov is the U.S. government's official web portal to all federal, state and local government web resources and services.